Time;durP1;ratioP1;P1;durP2;ratioP2;P2;SDS_P1;SDS_P2;PMS_P1;PMS_P2;Temp;Humidity;BMP_temperature;BMP_pressure;BME280_temperature;BME280_humidity;BME280_pressure;Samples;Min_cycle;Max_cycle;Signal;HPM_P1;HPM_P2
2021/09/30 00:00:37;;;;;;;2.33;1.38;;;9.40;99.90;;;;;;4876764;29;20215;-72
2021/09/30 00:03:04;;;;;;;1.98;1.13;;;9.40;99.90;;;;;;4876205;29;20306;-72
2021/09/30 00:05:31;;;;;;;2.40;1.27;;;9.40;99.90;;;;;;4876509;29;20235;-72
2021/09/30 00:07:58;;;;;;;2.13;1.27;;;9.30;99.90;;;;;;4876635;29;20706;-71
2021/09/30 00:10:25;;;;;;;3.90;1.30;;;9.30;99.90;;;;;;4876797;29;20211;-72
2021/09/30 00:12:58;;;;;;;2.63;1.45;;;9.30;99.90;;;;;;4875973;29;20759;-72
2021/09/30 00:15:33;;;;;;;3.22;1.55;;;9.20;99.90;;;;;;4876729;29;20227;-72
2021/09/30 00:34:41;;;;;;;2.10;1.35;;;8.80;99.90;;;;;;4875951;29;20225;-72
2021/09/30 00:40:17;;;;;;;1.50;1.10;;;8.60;99.90;;;;;;4879790;29;20240;-71
2021/09/30 00:48:33;;;;;;;2.10;1.20;;;8.40;99.90;;;;;;4877007;29;20206;-72
2021/09/30 00:51:11;;;;;;;3.78;1.92;;;8.40;99.90;;;;;;4879674;29;20295;-72
2021/09/30 00:53:55;;;;;;;1.45;1.35;;;8.30;99.90;;;;;;4878972;29;20234;-72
2021/09/30 01:52:54;;;;;;;1.80;1.23;;;8.60;99.90;;;;;;4860022;29;20239;-71
2021/09/30 01:58:28;;;;;;;2.17;1.38;;;8.60;99.90;;;;;;4860471;29;20336;-71
2021/09/30 02:20:32;;;;;;;5.93;1.30;;;8.50;99.90;;;;;;4860131;29;20291;-71
2021/09/30 02:23:23;;;;;;;1.90;1.25;;;8.50;99.90;;;;;;4859391;29;20204;-71
2021/09/30 02:59:16;;;;;;;2.60;1.30;;;8.40;99.90;;;;;;4858778;29;20242;-70
2021/09/30 03:01:46;;;;;;;3.38;1.02;;;8.40;99.90;;;;;;4859088;29;20315;-70
2021/09/30 03:04:14;;;;;;;2.78;1.40;;;8.40;99.90;;;;;;4858537;29;20723;-70
2021/09/30 03:06:43;;;;;;;1.40;1.30;;;8.40;99.90;;;;;;4858809;29;20227;-70
2021/09/30 03:09:17;;;;;;;2.45;1.20;;;8.40;99.90;;;;;;4859125;29;20208;-70
2021/09/30 03:11:49;;;;;;;2.00;1.13;;;8.40;99.90;;;;;;4858840;29;20214;-70
2021/09/30 03:14:17;;;;;;;2.72;1.40;;;8.30;99.90;;;;;;4858512;29;20236;-70
2021/09/30 03:16:47;;;;;;;2.10;1.30;;;8.30;99.90;;;;;;4858774;29;20200;-70
2021/09/30 03:19:31;;;;;;;1.20;1.10;;;8.30;99.90;;;;;;4858971;29;20623;-70
2021/09/30 03:22:15;;;;;;;4.03;1.50;;;8.30;99.90;;;;;;4858632;29;20211;-70
2021/09/30 03:24:45;;;;;;;2.17;1.50;;;8.30;99.90;;;;;;4858232;29;20227;-70
2021/09/30 03:27:13;;;;;;;2.78;1.38;;;8.20;99.90;;;;;;4858656;29;20725;-70
2021/09/30 03:29:40;;;;;;;1.25;1.10;;;8.20;99.90;;;;;;4858636;29;20219;-70
2021/09/30 03:32:07;;;;;;;1.40;1.17;;;8.20;99.90;;;;;;4858514;29;20215;-70
2021/09/30 03:34:35;;;;;;;1.80;1.20;;;8.10;99.90;;;;;;4858357;29;20231;-70
2021/09/30 03:37:04;;;;;;;1.90;1.33;;;8.10;99.90;;;;;;4875956;29;20200;-70
2021/09/30 03:39:31;;;;;;;2.10;1.10;;;8.00;99.90;;;;;;4876271;29;20199;-71
2021/09/30 03:41:58;;;;;;;2.38;1.30;;;8.00;99.90;;;;;;4875449;29;20202;-70
2021/09/30 03:44:25;;;;;;;2.55;1.40;;;8.00;99.90;;;;;;4875698;29;20580;-69
2021/09/30 03:46:52;;;;;;;2.38;1.33;;;7.90;99.90;;;;;;4875792;29;20566;-70
2021/09/30 03:49:26;;;;;;;3.90;1.40;;;7.80;99.90;;;;;;4876417;29;20212;-70
2021/09/30 03:51:59;;;;;;;2.45;1.48;;;7.80;99.90;;;;;;4875895;29;20246;-69
2021/09/30 03:54:34;;;;;;;1.60;1.20;;;7.70;99.90;;;;;;4872873;29;20310;-70
2021/09/30 03:57:08;;;;;;;3.47;1.77;;;7.70;99.90;;;;;;4875707;29;20762;-70
2021/09/30 03:59:34;;;;;;;1.90;1.30;;;7.60;99.90;;;;;;4875710;29;20207;-70
2021/09/30 04:02:01;;;;;;;1.20;1.07;;;7.60;99.90;;;;;;4876221;29;20195;-69
2021/09/30 04:04:30;;;;;;;2.05;1.40;;;7.60;99.90;;;;;;4874755;29;20483;-69
2021/09/30 04:06:58;;;;;;;1.38;1.27;;;7.50;99.90;;;;;;4876447;29;20219;-69
2021/09/30 04:09:29;;;;;;;1.80;1.30;;;7.50;99.90;;;;;;4875547;29;20211;-70
2021/09/30 04:11:58;;;;;;;1.42;1.00;;;7.50;99.90;;;;;;4878166;29;20204;-69
2021/09/30 04:14:25;;;;;;;2.13;1.35;;;7.50;99.90;;;;;;4879518;29;20223;-69
2021/09/30 04:16:53;;;;;;;2.28;1.40;;;7.40;99.90;;;;;;4880454;29;20203;-70
2021/09/30 04:19:21;;;;;;;2.30;1.67;;;7.40;99.90;;;;;;4880002;29;20214;-70
2021/09/30 04:21:49;;;;;;;2.78;1.42;;;7.40;99.90;;;;;;4880172;29;20199;-69
2021/09/30 04:24:16;;;;;;;2.10;1.55;;;7.40;99.90;;;;;;4879750;29;20595;-69
2021/09/30 04:26:45;;;;;;;3.95;1.52;;;7.30;99.90;;;;;;4880102;29;20258;-70
2021/09/30 04:29:11;;;;;;;1.50;1.40;;;7.30;99.90;;;;;;4879118;29;20196;-69
2021/09/30 04:31:38;;;;;;;3.10;1.40;;;7.30;99.90;;;;;;4879301;29;20560;-70
2021/09/30 04:34:05;;;;;;;3.38;1.80;;;7.30;99.90;;;;;;4879123;29;20238;-69
2021/09/30 04:36:32;;;;;;;1.75;1.20;;;7.20;99.90;;;;;;4880302;29;20204;-70
2021/09/30 04:38:59;;;;;;;5.28;1.60;;;7.20;99.90;;;;;;4880288;29;20215;-69
2021/09/30 04:41:26;;;;;;;4.32;1.42;;;7.20;99.90;;;;;;4880391;29;20215;-69
2021/09/30 04:43:54;;;;;;;1.98;1.55;;;7.20;99.90;;;;;;4879494;29;20227;-69
2021/09/30 04:46:21;;;;;;;2.38;1.38;;;7.20;99.90;;;;;;4880162;29;20231;-69
2021/09/30 04:48:48;;;;;;;2.13;1.20;;;7.20;99.90;;;;;;4879949;29;20215;-70
2021/09/30 04:51:15;;;;;;;2.28;1.20;;;7.20;99.90;;;;;;4880306;29;20704;-70
2021/09/30 04:53:42;;;;;;;3.15;1.30;;;7.20;99.90;;;;;;4879272;29;20234;-69
2021/09/30 04:56:10;;;;;;;1.52;1.30;;;7.20;99.90;;;;;;4880028;29;20211;-69
2021/09/30 04:58:37;;;;;;;1.80;1.35;;;7.20;99.90;;;;;;4879866;29;20602;-70
2021/09/30 05:01:05;;;;;;;2.28;1.35;;;7.10;99.90;;;;;;4880156;29;20211;-70
2021/09/30 05:03:32;;;;;;;2.28;1.52;;;7.00;99.90;;;;;;4879312;29;20211;-69
2021/09/30 05:05:59;;;;;;;1.98;1.35;;;7.00;99.90;;;;;;4879815;29;20254;-70
2021/09/30 05:08:27;;;;;;;2.20;1.30;;;7.00;99.90;;;;;;4879972;29;20227;-70
2021/09/30 05:10:54;;;;;;;8.35;1.80;;;7.00;99.90;;;;;;4879602;29;20305;-69
2021/09/30 05:13:22;;;;;;;1.50;1.40;;;7.00;99.90;;;;;;4879430;29;20210;-70
2021/09/30 05:15:49;;;;;;;2.05;1.48;;;7.10;99.90;;;;;;4879699;29;20207;-69
2021/09/30 05:18:18;;;;;;;1.73;1.55;;;7.00;99.90;;;;;;4879731;29;20204;-69
2021/09/30 05:20:44;;;;;;;1.60;1.50;;;7.00;99.90;;;;;;4879790;29;20302;-69
2021/09/30 05:23:11;;;;;;;2.05;1.60;;;6.90;99.90;;;;;;4878859;29;20211;-69
2021/09/30 05:25:38;;;;;;;5.25;1.70;;;6.90;99.90;;;;;;4879182;29;20227;-69
2021/09/30 05:28:05;;;;;;;2.22;1.75;;;6.90;99.90;;;;;;4879577;29;20223;-68
2021/09/30 05:30:32;;;;;;;2.17;1.35;;;6.90;99.90;;;;;;4879405;29;20363;-68
2021/09/30 05:32:59;;;;;;;3.30;1.67;;;6.90;99.90;;;;;;4878878;29;20207;-68
2021/09/30 05:35:27;;;;;;;2.28;1.80;;;6.90;99.90;;;;;;4879333;29;20227;-69
2021/09/30 05:37:54;;;;;;;2.17;1.90;;;7.00;99.90;;;;;;4878858;29;20212;-69
2021/09/30 05:40:21;;;;;;;2.15;1.75;;;7.00;99.90;;;;;;4879357;29;20207;-69
2021/09/30 05:42:48;;;;;;;2.10;1.80;;;7.00;99.90;;;;;;4880468;29;20695;-70
2021/09/30 05:45:17;;;;;;;2.47;1.67;;;7.00;99.90;;;;;;4879026;29;20228;-69
2021/09/30 05:47:45;;;;;;;2.38;1.30;;;7.00;99.90;;;;;;4878918;29;20230;-70
2021/09/30 05:50:12;;;;;;;4.22;2.05;;;7.00;99.90;;;;;;4878894;29;20285;-69
2021/09/30 05:52:41;;;;;;;1.75;1.65;;;7.10;99.90;;;;;;4878778;29;20250;-69
2021/09/30 05:55:09;;;;;;;2.20;1.60;;;7.10;99.90;;;;;;4878747;29;20234;-69
2021/09/30 05:57:36;;;;;;;2.42;1.45;;;7.00;99.90;;;;;;4878804;29;20230;-69
2021/09/30 06:00:12;;;;;;;3.25;1.90;;;7.10;99.90;;;;;;4878695;29;20222;-69
2021/09/30 06:10:57;;;;;;;1.70;1.60;;;7.10;99.90;;;;;;4878516;29;20207;-69
2021/09/30 06:13:28;;;;;;;5.60;1.60;;;7.20;99.90;;;;;;4878476;29;20637;-69
2021/09/30 06:15:55;;;;;;;1.55;1.23;;;7.20;99.90;;;;;;4878436;29;20695;-69
2021/09/30 06:18:22;;;;;;;2.90;1.50;;;7.30;99.90;;;;;;4878584;29;20212;-69
2021/09/30 06:20:48;;;;;;;4.30;1.60;;;7.30;99.90;;;;;;4878409;29;20203;-68
2021/09/30 06:23:17;;;;;;;5.00;1.50;;;7.30;99.90;;;;;;4877949;29;20218;-70
2021/09/30 06:25:44;;;;;;;2.90;1.40;;;7.40;99.90;;;;;;4878279;29;20211;-69
2021/09/30 06:28:11;;;;;;;2.00;1.65;;;7.40;99.90;;;;;;4878660;29;20227;-69
2021/09/30 06:30:37;;;;;;;2.30;1.50;;;7.50;99.90;;;;;;4878437;29;20214;-69
2021/09/30 06:33:04;;;;;;;1.63;1.35;;;7.50;99.90;;;;;;4877759;29;20218;-69
2021/09/30 06:35:31;;;;;;;3.13;1.10;;;7.50;99.90;;;;;;4877668;29;20745;-69
2021/09/30 06:37:57;;;;;;;2.08;1.45;;;7.60;99.90;;;;;;4877884;29;20247;-69
2021/09/30 06:40:26;;;;;;;2.55;1.50;;;7.70;99.90;;;;;;4878147;29;20207;-69
2021/09/30 06:42:53;;;;;;;3.13;1.20;;;7.80;99.90;;;;;;4877700;29;20270;-69
2021/09/30 06:45:19;;;;;;;1.30;1.13;;;7.90;99.90;;;;;;4877952;29;20608;-69
2021/09/30 06:47:46;;;;;;;2.00;1.40;;;8.10;99.90;;;;;;4877802;29;20233;-69
2021/09/30 06:50:14;;;;;;;2.72;1.50;;;8.30;99.90;;;;;;4878259;29;20214;-69
2021/09/30 06:52:42;;;;;;;2.00;1.23;;;8.50;99.90;;;;;;4877761;29;20590;-69
2021/09/30 06:55:09;;;;;;;2.35;1.23;;;8.70;99.90;;;;;;4877661;29;20615;-69
2021/09/30 06:57:38;;;;;;;2.35;1.30;;;9.00;99.90;;;;;;4877950;29;20617;-69
2021/09/30 07:00:09;;;;;;;2.03;1.25;;;9.20;99.90;;;;;;4877722;29;20203;-69
2021/09/30 07:02:38;;;;;;;2.15;1.40;;;9.50;99.90;;;;;;4878020;29;20211;-69
2021/09/30 07:05:05;;;;;;;1.98;1.40;;;9.70;99.90;;;;;;4945249;23;20233;-73
2021/09/30 07:07:33;;;;;;;3.53;1.40;;;9.90;99.90;;;;;;4895336;29;20648;-73
2021/09/30 07:10:00;;;;;;;1.10;1.00;;;10.20;99.90;;;;;;4896052;29;20206;-74
2021/09/30 07:12:27;;;;;;;2.38;1.45;;;10.40;99.90;;;;;;4896201;29;20207;-74
2021/09/30 07:14:55;;;;;;;2.10;1.38;;;10.70;99.90;;;;;;4895642;29;20630;-74
2021/09/30 07:17:23;;;;;;;4.57;1.55;;;10.90;99.90;;;;;;4896110;29;20202;-74
2021/09/30 07:19:50;;;;;;;2.42;1.50;;;11.00;99.90;;;;;;4896140;29;20586;-74
2021/09/30 07:22:17;;;;;;;3.38;1.48;;;11.20;99.90;;;;;;4895940;29;20209;-74
2021/09/30 07:24:43;;;;;;;3.10;1.55;;;11.40;99.90;;;;;;4895462;29;20230;-74
2021/09/30 07:27:11;;;;;;;2.72;1.23;;;11.50;99.90;;;;;;4895963;29;20706;-74
2021/09/30 07:29:38;;;;;;;2.65;1.33;;;11.60;99.90;;;;;;4896361;29;20292;-73
2021/09/30 07:32:06;;;;;;;3.63;1.65;;;11.60;99.90;;;;;;4895941;29;20233;-74
2021/09/30 07:34:34;;;;;;;1.98;1.17;;;11.70;99.90;;;;;;4895345;29;20595;-74
2021/09/30 07:37:01;;;;;;;3.92;1.65;;;11.80;99.90;;;;;;4895695;29;20266;-74
2021/09/30 07:39:29;;;;;;;2.20;1.50;;;11.90;99.90;;;;;;4896010;29;20211;-74
2021/09/30 07:41:57;;;;;;;1.60;1.17;;;12.10;99.90;;;;;;4895722;29;20281;-74
2021/09/30 07:44:25;;;;;;;2.07;1.27;;;12.30;99.90;;;;;;4895307;29;20776;-74
2021/09/30 07:46:52;;;;;;;2.78;1.48;;;12.50;99.90;;;;;;4898862;29;20493;-74
2021/09/30 07:49:20;;;;;;;3.25;1.20;;;12.60;99.90;;;;;;4899717;29;20202;-74
2021/09/30 07:51:47;;;;;;;5.10;1.20;;;12.80;99.90;;;;;;4899518;29;20705;-74
2021/09/30 07:54:14;;;;;;;3.00;1.30;;;13.10;99.90;;;;;;4899018;29;20490;-74
2021/09/30 07:56:41;;;;;;;4.93;1.43;;;13.20;99.90;;;;;;4899683;29;20467;-74
2021/09/30 07:59:08;;;;;;;1.35;1.25;;;13.40;99.90;;;;;;4899650;29;20473;-74
2021/09/30 08:01:35;;;;;;;1.47;1.00;;;13.40;99.90;;;;;;4899517;29;20217;-74
2021/09/30 08:04:03;;;;;;;2.60;1.20;;;13.40;99.90;;;;;;4898782;29;20490;-74
2021/09/30 08:06:32;;;;;;;2.88;1.10;;;13.30;99.90;;;;;;4899350;29;20473;-74
2021/09/30 08:08:59;;;;;;;3.50;1.23;;;13.40;99.90;;;;;;4899135;29;20222;-74
2021/09/30 08:11:27;;;;;;;2.50;1.20;;;13.40;99.90;;;;;;4899357;29;20977;-74
2021/09/30 08:13:54;;;;;;;2.10;1.40;;;13.50;99.90;;;;;;4898549;29;20487;-74
2021/09/30 08:16:23;;;;;;;4.10;1.60;;;13.60;99.90;;;;;;4899352;29;20489;-74
2021/09/30 08:18:50;;;;;;;1.87;1.20;;;13.80;99.90;;;;;;4899286;29;20549;-74
2021/09/30 08:21:18;;;;;;;3.43;1.47;;;14.00;99.90;;;;;;4899310;29;20466;-74
2021/09/30 08:23:46;;;;;;;2.47;1.50;;;14.20;99.90;;;;;;4898446;29;20486;-74
2021/09/30 08:26:18;;;;;;;2.47;1.50;;;14.20;99.90;;;;;;4899176;29;20481;-74
2021/09/30 08:28:48;;;;;;;2.40;1.57;;;14.20;99.90;;;;;;4898927;29;20581;-74
2021/09/30 08:31:15;;;;;;;2.07;1.40;;;14.30;99.90;;;;;;4899110;29;20474;-74
2021/09/30 08:33:42;;;;;;;1.77;1.20;;;14.30;99.90;;;;;;4898340;29;20483;-74
2021/09/30 08:36:12;;;;;;;3.13;1.13;;;14.30;99.90;;;;;;4899027;29;20869;-74
2021/09/30 08:38:40;;;;;;;2.80;1.10;;;14.30;99.90;;;;;;4898700;29;20458;-74
2021/09/30 08:41:09;;;;;;;2.13;1.10;;;14.40;99.90;;;;;;4898747;29;20473;-74
2021/09/30 08:43:36;;;;;;;1.60;1.17;;;14.70;99.90;;;;;;4898279;29;20899;-74
2021/09/30 08:46:05;;;;;;;5.47;1.40;;;15.00;99.90;;;;;;4898396;29;20478;-74
2021/09/30 08:48:32;;;;;;;2.43;1.40;;;15.30;99.90;;;;;;4898685;29;20490;-74
2021/09/30 08:50:59;;;;;;;3.00;1.50;;;15.50;99.90;;;;;;4898444;29;20482;-74
2021/09/30 08:53:25;;;;;;;1.70;0.90;;;15.40;99.90;;;;;;4898089;29;20470;-74
2021/09/30 08:55:52;;;;;;;3.90;1.10;;;15.40;99.90;;;;;;4898437;29;20473;-74
2021/09/30 08:58:20;;;;;;;5.60;1.40;;;15.10;99.90;;;;;;4897983;29;20844;-74
2021/09/30 09:00:47;;;;;;;1.73;1.10;;;14.60;99.90;;;;;;4898341;29;20479;-74
2021/09/30 09:03:14;;;;;;;2.03;1.10;;;14.40;99.90;;;;;;4897984;29;20466;-74
2021/09/30 09:05:41;;;;;;;1.70;1.10;;;14.30;99.90;;;;;;4898210;29;20478;-74
2021/09/30 09:08:10;;;;;;;3.10;1.30;;;14.10;99.90;;;;;;4898222;29;20498;-74
2021/09/30 09:10:39;;;;;;;2.93;1.00;;;13.90;99.90;;;;;;4898553;29;20470;-74
2021/09/30 09:13:09;;;;;;;2.23;1.20;;;14.00;99.90;;;;;;4897895;29;20462;-74
2021/09/30 09:15:42;;;;;;;1.77;1.20;;;14.20;99.90;;;;;;4898003;29;20545;-74
2021/09/30 09:18:17;;;;;;;3.80;1.10;;;14.40;99.90;;;;;;4898182;29;20473;-74
2021/09/30 09:20:47;;;;;;;2.23;1.20;;;14.20;99.90;;;;;;4898098;29;20474;-74
2021/09/30 09:23:14;;;;;;;2.07;1.20;;;14.10;99.90;;;;;;4897657;29;20478;-74
2021/09/30 09:25:41;;;;;;;2.30;1.10;;;14.00;99.90;;;;;;4898060;29;20467;-74
2021/09/30 09:28:09;;;;;;;1.77;1.00;;;14.00;99.90;;;;;;4897820;29;20879;-74
2021/09/30 09:30:45;;;;;;;1.93;1.13;;;14.00;99.90;;;;;;4897972;29;20466;-74
2021/09/30 09:33:15;;;;;;;2.10;1.13;;;14.00;99.90;;;;;;4897616;29;20566;-74
2021/09/30 09:36:02;;;;;;;1.90;1.10;;;14.10;99.90;;;;;;4897647;29;21046;-74
2021/09/30 09:38:31;;;;;;;3.70;1.30;;;14.50;99.90;;;;;;4897734;29;20498;-74
2021/09/30 09:41:01;;;;;;;1.30;1.00;;;14.90;99.90;;;;;;4897464;29;20463;-74
2021/09/30 09:43:34;;;;;;;2.50;1.27;;;15.30;99.90;;;;;;4897154;29;20938;-74
2021/09/30 09:46:05;;;;;;;4.93;1.20;;;15.30;99.90;;;;;;4897464;29;20457;-74
2021/09/30 09:48:33;;;;;;;2.53;1.00;;;15.50;99.90;;;;;;4897593;29;20494;-74
2021/09/30 09:51:03;;;;;;;1.53;1.00;;;15.80;99.90;;;;;;4897462;29;20466;-74
2021/09/30 09:53:32;;;;;;;0.97;0.80;;;15.90;99.90;;;;;;4896986;29;20470;-74
2021/09/30 09:56:15;;;;;;;1.67;0.93;;;15.80;99.90;;;;;;4897170;29;20466;-74
2021/09/30 09:58:50;;;;;;;2.50;1.20;;;15.80;99.90;;;;;;4897339;29;20477;-74
2021/09/30 10:01:22;;;;;;;1.47;1.00;;;15.90;99.90;;;;;;4897443;29;20465;-74
2021/09/30 10:03:58;;;;;;;1.00;0.90;;;16.20;99.90;;;;;;4896775;29;20582;-74
2021/09/30 10:06:25;;;;;;;2.87;1.43;;;16.40;99.90;;;;;;4897239;29;20478;-74
2021/09/30 10:08:53;;;;;;;1.80;0.80;;;16.60;99.90;;;;;;4895918;29;20860;-74
2021/09/30 10:11:20;;;;;;;2.43;1.30;;;16.70;98.90;;;;;;4897146;29;20478;-74
2021/09/30 10:13:48;;;;;;;2.53;1.10;;;16.80;99.90;;;;;;4896554;29;20483;-74
2021/09/30 10:16:25;;;;;;;3.07;1.20;;;16.90;99.90;;;;;;4897122;29;20471;-74
2021/09/30 10:18:52;;;;;;;1.27;0.90;;;17.10;99.90;;;;;;4896833;29;20473;-74
2021/09/30 10:21:19;;;;;;;2.17;1.03;;;17.60;99.90;;;;;;4896816;29;20466;-74
2021/09/30 10:23:52;;;;;;;2.10;1.23;;;17.80;99.90;;;;;;4895405;29;20486;-74
2021/09/30 10:26:24;;;;;;;1.20;0.90;;;17.80;99.90;;;;;;4896802;29;20474;-74
2021/09/30 10:28:51;;;;;;;2.07;1.00;;;17.80;99.50;;;;;;4896585;29;20588;-74
2021/09/30 10:31:26;;;;;;;2.20;1.13;;;17.90;99.20;;;;;;4896732;29;20469;-74
2021/09/30 10:33:54;;;;;;;3.53;1.00;;;17.70;99.00;;;;;;4895818;29;20485;-74
2021/09/30 10:36:33;;;;;;;1.77;0.83;;;17.50;99.30;;;;;;4896607;29;20467;-74
2021/09/30 10:39:17;;;;;;;2.13;1.10;;;17.20;99.00;;;;;;4896375;29;20466;-74
2021/09/30 10:41:44;;;;;;;2.27;1.10;;;16.80;99.30;;;;;;4896392;29;20470;-74
2021/09/30 10:44:15;;;;;;;1.43;1.20;;;16.50;98.30;;;;;;4895744;29;21018;-74
2021/09/30 10:46:48;;;;;;;2.50;1.00;;;16.30;99.90;;;;;;4896265;29;20467;-74
2021/09/30 10:49:44;;;;;;;1.80;1.17;;;16.20;99.90;;;;;;4896388;29;20494;-74
2021/09/30 10:52:49;;;;;;;2.10;1.10;;;16.50;99.90;;;;;;4896351;29;20887;-75
2021/09/30 10:55:32;;;;;;;2.70;1.30;;;16.90;99.10;;;;;;4895755;29;20485;-74
2021/09/30 10:58:00;;;;;;;3.57;1.00;;;17.50;99.00;;;;;;4895945;29;20458;-74
2021/09/30 11:01:00;;;;;;;3.90;1.37;;;17.90;99.30;;;;;;4896017;29;20990;-74
2021/09/30 11:03:28;;;;;;;2.50;1.20;;;18.10;99.60;;;;;;4895338;29;20474;-74
2021/09/30 11:06:17;;;;;;;1.63;1.00;;;18.20;99.30;;;;;;4895829;29;20982;-74
2021/09/30 11:08:48;;;;;;;1.90;1.00;;;18.60;99.90;;;;;;4895998;29;20491;-74
2021/09/30 11:11:22;;;;;;;1.97;1.03;;;18.90;99.80;;;;;;4895843;29;21057;-74
2021/09/30 11:14:10;;;;;;;2.03;1.00;;;19.10;98.90;;;;;;4895527;29;20530;-74
2021/09/30 11:16:40;;;;;;;1.67;1.23;;;19.20;98.90;;;;;;4895830;29;20466;-74
2021/09/30 11:19:24;;;;;;;1.33;0.90;;;19.40;98.50;;;;;;4895890;29;20473;-72
2021/09/30 11:21:51;;;;;;;3.33;0.97;;;19.40;99.00;;;;;;4895790;29;20485;-72
2021/09/30 11:24:33;;;;;;;2.53;1.10;;;19.20;95.50;;;;;;4894983;29;20493;-72
2021/09/30 11:27:20;;;;;;;1.50;1.03;;;18.60;95.00;;;;;;4895881;29;20858;-72
2021/09/30 11:29:48;;;;;;;3.10;0.90;;;18.10;96.10;;;;;;4895832;29;20494;-72
2021/09/30 11:32:27;;;;;;;2.37;1.20;;;18.00;97.10;;;;;;4895543;29;20959;-72
2021/09/30 11:34:56;;;;;;;1.97;1.20;;;18.00;96.00;;;;;;4894772;29;20489;-72
2021/09/30 11:37:26;;;;;;;1.30;1.00;;;18.00;96.40;;;;;;4895330;29;20466;-72
2021/09/30 11:39:56;;;;;;;2.37;1.37;;;18.50;97.70;;;;;;4895527;29;20470;-72
2021/09/30 11:42:24;;;;;;;0.97;0.87;;;19.10;97.80;;;;;;4895270;29;20470;-72
2021/09/30 11:44:58;;;;;;;2.00;0.90;;;19.60;98.20;;;;;;4894849;29;20494;-72
2021/09/30 11:47:27;;;;;;;2.20;1.20;;;19.90;96.90;;;;;;4895136;29;20470;-72
2021/09/30 11:49:55;;;;;;;1.47;1.10;;;20.30;97.10;;;;;;4894633;29;20494;-72
2021/09/30 11:52:22;;;;;;;1.43;0.97;;;20.10;96.00;;;;;;4895092;29;20462;-72
2021/09/30 11:54:49;;;;;;;1.63;0.97;;;19.70;97.00;;;;;;4894951;29;20495;-72
2021/09/30 11:57:22;;;;;;;2.10;0.93;;;19.50;96.10;;;;;;4895729;29;20478;-72
2021/09/30 11:59:48;;;;;;;2.17;1.13;;;19.40;96.50;;;;;;4895629;29;20465;-72
2021/09/30 12:02:15;;;;;;;2.13;1.07;;;19.30;97.40;;;;;;4895376;29;20969;-72
2021/09/30 12:04:46;;;;;;;3.23;1.23;;;18.90;97.90;;;;;;4894681;29;20490;-72
2021/09/30 12:07:16;;;;;;;2.97;1.07;;;18.50;98.20;;;;;;4895417;29;20467;-72
2021/09/30 12:09:44;;;;;;;1.93;1.00;;;18.80;97.80;;;;;;4894968;29;20547;-72
2021/09/30 12:12:11;;;;;;;2.13;1.07;;;19.30;96.60;;;;;;4893560;29;20474;-72
2021/09/30 12:14:40;;;;;;;1.60;1.17;;;20.00;96.50;;;;;;4892040;29;20497;-72
2021/09/30 12:17:12;;;;;;;3.43;1.47;;;20.60;96.40;;;;;;4893256;29;20473;-72
2021/09/30 12:19:40;;;;;;;2.30;1.10;;;21.10;93.50;;;;;;4894792;29;20466;-72
2021/09/30 12:22:11;;;;;;;2.03;1.00;;;21.00;91.80;;;;;;4894918;29;20462;-72
2021/09/30 12:24:43;;;;;;;1.40;1.00;;;21.10;93.30;;;;;;4894086;29;20486;-72
2021/09/30 12:27:10;;;;;;;2.60;1.17;;;21.20;92.70;;;;;;4895992;29;20868;-72
2021/09/30 12:29:45;;;;;;;1.70;1.20;;;21.30;92.60;;;;;;4895249;29;20879;-72
2021/09/30 12:32:15;;;;;;;4.10;1.00;;;21.10;90.80;;;;;;4895981;29;20470;-72
2021/09/30 12:34:53;;;;;;;1.80;0.80;;;21.00;93.10;;;;;;4898335;29;20594;-72
2021/09/30 12:37:25;;;;;;;2.00;1.10;;;21.10;94.30;;;;;;4899002;29;20497;-72
2021/09/30 12:40:00;;;;;;;2.17;0.90;;;21.10;92.10;;;;;;4899184;29;20462;-72
2021/09/30 12:42:28;;;;;;;1.20;1.03;;;21.20;94.50;;;;;;4898725;29;20466;-72
2021/09/30 12:44:55;;;;;;;2.53;1.03;;;21.30;93.90;;;;;;4898221;29;20568;-72
2021/09/30 12:47:33;;;;;;;1.60;1.00;;;21.40;93.70;;;;;;4898516;29;20467;-72
2021/09/30 12:50:03;;;;;;;3.43;1.23;;;21.30;93.70;;;;;;4898748;29;20585;-73
2021/09/30 12:52:31;;;;;;;1.80;1.07;;;21.20;93.70;;;;;;4898508;29;20970;-72
2021/09/30 12:54:58;;;;;;;1.20;1.00;;;21.30;93.60;;;;;;4898251;29;21032;-72
2021/09/30 12:57:33;;;;;;;1.33;0.97;;;21.40;94.40;;;;;;4898459;29;20496;-72
2021/09/30 13:00:12;;;;;;;1.80;1.03;;;21.40;94.20;;;;;;4898717;29;20462;-73
2021/09/30 13:02:39;;;;;;;1.47;1.00;;;21.20;94.60;;;;;;4898268;29;20466;-72
2021/09/30 13:05:07;;;;;;;1.50;0.97;;;21.10;94.30;;;;;;4897895;29;20494;-72
2021/09/30 13:07:47;;;;;;;2.10;1.00;;;21.10;93.60;;;;;;4958112;23;21040;-72
2021/09/30 13:10:16;;;;;;;2.50;1.33;;;21.00;94.10;;;;;;4898142;29;20490;-72
2021/09/30 13:12:58;;;;;;;2.67;1.37;;;20.80;94.40;;;;;;4897935;29;20481;-72
2021/09/30 13:15:36;;;;;;;2.00;0.90;;;20.70;95.30;;;;;;4897591;29;20482;-72
2021/09/30 13:18:05;;;;;;;2.50;1.07;;;20.60;95.10;;;;;;4898114;29;20465;-72
2021/09/30 13:20:32;;;;;;;2.90;1.07;;;20.50;94.50;;;;;;4897797;29;21025;-70
2021/09/30 13:23:00;;;;;;;2.40;1.30;;;20.30;94.20;;;;;;4897778;29;20466;-71
2021/09/30 13:25:27;;;;;;;1.67;1.10;;;20.40;94.50;;;;;;4897152;29;20482;-71
2021/09/30 13:27:54;;;;;;;5.03;1.27;;;20.30;94.20;;;;;;4898000;29;20879;-72
2021/09/30 13:30:23;;;;;;;2.37;0.97;;;20.30;94.60;;;;;;4897686;29;21017;-71
2021/09/30 13:32:51;;;;;;;3.33;1.00;;;20.20;94.90;;;;;;4897787;29;20834;-72
2021/09/30 13:35:23;;;;;;;2.67;1.10;;;20.30;95.80;;;;;;4896988;29;20492;-72
2021/09/30 13:37:49;;;;;;;1.50;1.20;;;20.20;94.70;;;;;;4896255;29;20471;-72
2021/09/30 13:40:18;;;;;;;2.17;1.17;;;19.70;95.00;;;;;;4897670;29;20967;-72
2021/09/30 13:42:45;;;;;;;2.70;1.10;;;19.30;95.20;;;;;;4897458;29;20494;-71
2021/09/30 13:45:14;;;;;;;1.20;1.10;;;19.20;96.10;;;;;;4897090;29;20501;-72
2021/09/30 13:47:41;;;;;;;1.67;1.37;;;19.00;96.40;;;;;;4897286;29;20473;-71
2021/09/30 13:50:10;;;;;;;1.83;1.00;;;18.90;96.70;;;;;;4897422;29;20554;-71
2021/09/30 13:52:37;;;;;;;3.13;1.10;;;18.90;97.60;;;;;;4897342;29;20848;-71
2021/09/30 13:55:06;;;;;;;1.50;1.10;;;18.90;96.90;;;;;;4896787;29;20998;-72
2021/09/30 13:57:34;;;;;;;1.37;1.00;;;18.90;95.00;;;;;;4897187;29;20936;-70
2021/09/30 14:00:01;;;;;;;1.93;1.00;;;19.10;95.50;;;;;;4897409;29;20466;-71
2021/09/30 14:02:28;;;;;;;2.00;1.10;;;19.10;95.40;;;;;;4897217;29;20478;-71
2021/09/30 14:04:55;;;;;;;1.33;1.10;;;18.90;95.70;;;;;;4896602;29;20482;-71
2021/09/30 14:07:22;;;;;;;1.93;1.10;;;18.40;94.70;;;;;;4897019;29;20485;-71
2021/09/30 14:09:49;;;;;;;2.23;1.10;;;17.90;93.80;;;;;;4896937;29;21033;-71
2021/09/30 14:12:16;;;;;;;2.53;1.10;;;17.80;96.20;;;;;;4897090;29;20466;-72
2021/09/30 14:14:44;;;;;;;1.40;1.30;;;17.90;97.10;;;;;;4896472;29;20498;-71
2021/09/30 14:17:11;;;;;;;1.20;1.10;;;18.20;97.20;;;;;;4896923;29;20474;-71
2021/09/30 14:19:38;;;;;;;1.83;1.10;;;18.40;96.90;;;;;;4896837;29;20474;-72
2021/09/30 14:22:05;;;;;;;1.50;1.10;;;18.60;96.70;;;;;;4896870;29;20477;-70
2021/09/30 14:24:32;;;;;;;1.30;1.10;;;18.70;96.70;;;;;;4896085;29;21085;-71
2021/09/30 14:27:00;;;;;;;2.40;1.13;;;18.80;96.40;;;;;;4896811;29;20534;-71
2021/09/30 14:29:26;;;;;;;2.60;1.20;;;18.80;96.40;;;;;;4896618;29;20494;-71
2021/09/30 14:31:55;;;;;;;2.50;1.10;;;18.90;96.70;;;;;;4896705;29;20470;-73
2021/09/30 14:34:22;;;;;;;1.97;1.23;;;18.80;96.60;;;;;;4895919;29;20492;-70
2021/09/30 14:36:48;;;;;;;1.20;0.97;;;18.90;96.90;;;;;;4896647;29;20475;-71
2021/09/30 14:39:15;;;;;;;1.73;1.23;;;18.90;97.20;;;;;;4896558;29;20463;-72
2021/09/30 14:41:42;;;;;;;1.27;0.90;;;18.70;96.80;;;;;;4896664;29;20482;-73
2021/09/30 14:44:09;;;;;;;1.17;0.97;;;18.70;96.10;;;;;;4895872;29;20502;-73
2021/09/30 14:46:36;;;;;;;2.03;1.10;;;18.50;95.50;;;;;;4896199;29;20542;-71
2021/09/30 14:49:04;;;;;;;1.33;1.00;;;18.40;96.30;;;;;;4896493;29;20486;-72
2021/09/30 14:51:31;;;;;;;3.20;1.10;;;18.40;96.50;;;;;;4896269;29;20471;-71
2021/09/30 14:53:57;;;;;;;1.90;1.10;;;18.40;94.80;;;;;;4895683;29;20486;-71
2021/09/30 14:56:24;;;;;;;1.50;1.00;;;18.30;96.20;;;;;;4895676;29;20858;-71
2021/09/30 14:58:51;;;;;;;1.47;0.90;;;18.20;96.70;;;;;;4896677;29;20462;-70
2021/09/30 15:01:20;;;;;;;2.20;1.10;;;18.30;97.40;;;;;;4896099;29;20467;-72
2021/09/30 15:03:46;;;;;;;1.63;1.00;;;18.20;97.70;;;;;;4895869;29;20483;-71
2021/09/30 15:06:15;;;;;;;2.17;1.37;;;18.30;97.70;;;;;;4896130;29;20485;-72
2021/09/30 15:08:41;;;;;;;2.13;1.10;;;18.40;97.60;;;;;;4896147;29;20473;-71
2021/09/30 15:11:08;;;;;;;4.30;1.10;;;18.30;95.50;;;;;;4896291;29;20986;-71
2021/09/30 15:13:35;;;;;;;2.60;1.13;;;18.10;97.30;;;;;;4896189;29;20494;-71
2021/09/30 15:16:05;;;;;;;1.60;1.10;;;18.00;97.20;;;;;;4896259;29;20473;-71
2021/09/30 15:18:50;;;;;;;3.77;1.20;;;17.90;96.70;;;;;;4895059;29;20840;-71
2021/09/30 15:21:24;;;;;;;2.00;1.43;;;17.90;96.90;;;;;;4895758;29;20537;-72
2021/09/30 15:23:54;;;;;;;2.00;1.13;;;17.90;97.80;;;;;;4893478;29;21133;-71
2021/09/30 15:26:21;;;;;;;1.73;1.10;;;17.90;96.90;;;;;;4895587;29;20463;-72
2021/09/30 15:28:48;;;;;;;1.30;1.10;;;17.80;97.20;;;;;;4895484;29;20473;-72